createdAt,value
2022-10-03T00:05:00.304Z,9.74
2022-10-03T00:10:34.037Z,9.79
2022-10-03T00:16:04.453Z,9.86
2022-10-03T00:21:35.236Z,9.89
2022-10-03T00:27:07.747Z,9.91
2022-10-03T00:32:48.863Z,9.98
2022-10-03T00:38:18.578Z,10.07
2022-10-03T00:43:51.373Z,10.13
2022-10-03T00:48:56.132Z,10.17
2022-10-03T00:54:15.648Z,10.23
2022-10-03T00:59:23.337Z,10.24
2022-10-03T01:04:44.039Z,10.24
2022-10-03T01:10:35.256Z,10.26
2022-10-03T01:16:00.553Z,10.30
2022-10-03T01:21:08.535Z,10.31
2022-10-03T01:26:44.556Z,10.33
2022-10-03T01:32:11.741Z,10.35
2022-10-03T01:37:32.309Z,10.35
2022-10-03T01:42:43.964Z,10.39
2022-10-03T01:47:55.671Z,10.45
2022-10-03T01:53:13.595Z,10.51
2022-10-03T01:58:31.388Z,10.53
2022-10-03T02:03:37.984Z,10.58
2022-10-03T02:09:05.348Z,10.61
2022-10-03T02:14:24.657Z,10.63
2022-10-03T02:19:42.459Z,10.68
2022-10-03T02:24:57.405Z,10.71
2022-10-03T02:30:14.493Z,10.76
2022-10-03T02:36:01.817Z,10.79
2022-10-03T02:41:39.445Z,10.82
2022-10-03T02:47:18.804Z,10.82
2022-10-03T02:53:07.678Z,10.83
2022-10-03T02:58:42.911Z,10.86
2022-10-03T03:04:15.388Z,10.88
2022-10-03T03:09:43.715Z,10.90
2022-10-03T03:15:34.055Z,10.93
2022-10-03T03:20:48.069Z,10.94
2022-10-03T03:26:15.222Z,10.96
2022-10-03T03:31:29.954Z,10.97
2022-10-03T03:36:48.993Z,10.97
2022-10-03T03:41:56.898Z,10.99
2022-10-03T03:47:10.641Z,11.01
2022-10-03T03:52:35.167Z,11.02
2022-10-03T03:57:44.059Z,11.01
2022-10-03T04:03:05.273Z,11.00
2022-10-03T04:08:28.612Z,10.99
2022-10-03T04:14:08.171Z,10.98
2022-10-03T04:19:26.125Z,10.93
2022-10-03T04:24:30.711Z,10.89
2022-10-03T04:29:56.511Z,10.87
2022-10-03T04:35:04.470Z,10.79
2022-10-03T04:40:25.863Z,10.72
2022-10-03T04:45:45.930Z,10.71
2022-10-03T04:51:07.540Z,10.72
2022-10-03T04:56:44.691Z,10.77
2022-10-03T05:02:18.470Z,10.81
2022-10-03T05:07:42.573Z,10.72
2022-10-03T05:12:59.542Z,10.53
2022-10-03T05:18:26.979Z,10.32
2022-10-03T05:23:38.076Z,10.19
2022-10-03T05:29:04.194Z,10.18
2022-10-03T05:34:17.106Z,10.16
2022-10-03T05:39:56.581Z,10.16
2022-10-03T05:45:21.637Z,10.20
2022-10-03T05:50:29.259Z,10.26
2022-10-03T05:55:42.980Z,10.31
2022-10-03T06:01:00.650Z,10.38
2022-10-03T06:06:20.895Z,10.43
2022-10-03T06:12:03.237Z,10.48
2022-10-03T06:17:10.859Z,10.55
2022-10-03T06:22:32.688Z,10.59
2022-10-03T06:28:12.398Z,10.70
2022-10-03T06:33:56.117Z,10.77
2022-10-03T06:39:52.495Z,10.82
2022-10-03T06:45:16.365Z,10.89
2022-10-03T06:50:28.308Z,10.98
2022-10-03T06:55:46.854Z,11.06
2022-10-03T07:01:13.690Z,11.11
2022-10-03T07:06:46.237Z,11.31
2022-10-03T07:12:20.145Z,11.39
2022-10-03T07:17:50.705Z,11.36
2022-10-03T07:23:17.490Z,11.35
2022-10-03T07:28:49.780Z,11.40
2022-10-03T07:34:27.199Z,11.19
2022-10-03T07:39:47.615Z,11.09
2022-10-03T07:45:31.340Z,11.10
2022-10-03T07:50:56.889Z,11.14
2022-10-03T07:56:26.415Z,11.04
2022-10-03T08:01:48.190Z,11.08
2022-10-03T08:07:28.826Z,11.38
2022-10-03T08:12:45.957Z,11.70
2022-10-03T08:18:32.346Z,11.71
2022-10-03T08:23:49.337Z,11.64
2022-10-03T08:29:13.442Z,11.55
2022-10-03T08:34:36.846Z,11.70
2022-10-03T08:39:57.943Z,11.96
2022-10-03T08:45:30.842Z,12.12
2022-10-03T08:50:48.096Z,12.34
2022-10-03T08:56:27.690Z,12.38
2022-10-03T09:01:40.998Z,12.47
2022-10-03T09:07:18.077Z,12.34
2022-10-03T09:12:45.772Z,12.19
2022-10-03T09:18:01.984Z,11.99
2022-10-03T09:23:41.613Z,11.69
2022-10-03T09:28:50.481Z,11.50
2022-10-03T09:33:55.446Z,11.41
2022-10-03T09:39:08.169Z,11.35
2022-10-03T09:44:54.446Z,11.36
2022-10-03T09:49:56.229Z,11.45
2022-10-03T09:55:14.309Z,11.29
2022-10-03T10:00:24.074Z,11.23
2022-10-03T10:05:54.579Z,11.43
2022-10-03T10:11:12.465Z,11.85
2022-10-03T10:16:23.356Z,12.17
2022-10-03T10:21:34.813Z,12.50
2022-10-03T10:27:11.061Z,12.66
2022-10-03T10:32:43.617Z,12.36
2022-10-03T10:37:55.137Z,12.25
2022-10-03T10:43:18.030Z,12.22
2022-10-03T10:48:44.754Z,12.24
2022-10-03T10:54:20.561Z,12.14
2022-10-03T10:59:53.649Z,11.98
2022-10-03T11:05:23.808Z,11.93
2022-10-03T11:10:34.616Z,11.91
2022-10-03T11:16:20.749Z,11.80
2022-10-03T11:22:13.952Z,11.86
2022-10-03T11:27:39.987Z,11.99
2022-10-03T11:33:33.014Z,11.87
2022-10-03T11:38:41.337Z,11.61
2022-10-03T11:44:15.560Z,11.59
2022-10-03T11:49:55.258Z,11.62
2022-10-03T11:55:15.951Z,11.61
2022-10-03T12:00:21.051Z,11.53
2022-10-03T12:05:47.462Z,11.44
2022-10-03T12:11:18.905Z,11.45
2022-10-03T12:17:16.732Z,11.46
2022-10-03T12:22:53.009Z,11.59
2022-10-03T12:27:57.856Z,11.60
2022-10-03T12:33:21.573Z,11.44
2022-10-03T12:38:51.412Z,11.32
2022-10-03T12:44:19.643Z,11.20
2022-10-03T12:49:30.347Z,11.18
2022-10-03T12:55:05.735Z,11.24
2022-10-03T13:00:21.033Z,11.39
2022-10-03T13:05:41.597Z,11.61
2022-10-03T13:10:54.698Z,11.73
2022-10-03T13:16:13.547Z,11.72
2022-10-03T13:21:44.900Z,11.81
2022-10-03T13:27:05.508Z,11.89
2022-10-03T13:32:13.333Z,11.90
2022-10-03T13:37:22.650Z,11.93
2022-10-03T13:42:39.418Z,11.92
2022-10-03T13:48:14.890Z,11.76
2022-10-03T13:53:50.326Z,11.65
2022-10-03T13:59:25.578Z,11.64
2022-10-03T14:04:57.121Z,11.65
2022-10-03T14:10:10.527Z,11.71
2022-10-03T14:15:27.920Z,11.73
2022-10-03T14:20:41.438Z,11.73
2022-10-03T14:26:05.645Z,11.75
2022-10-03T14:31:35.025Z,11.85
2022-10-03T14:36:49.821Z,11.86
2022-10-03T14:41:52.203Z,11.79
2022-10-03T14:47:09.083Z,11.66
2022-10-03T14:52:26.981Z,11.37
2022-10-03T14:57:39.686Z,11.18
2022-10-03T15:02:51.004Z,11.10
2022-10-03T15:08:13.693Z,11.09
2022-10-03T15:13:22.938Z,11.05
2022-10-03T15:18:33.645Z,10.99
2022-10-03T15:23:43.897Z,10.95
2022-10-03T15:28:50.732Z,10.93
2022-10-03T15:33:54.374Z,10.92
2022-10-03T15:39:01.103Z,10.92
2022-10-03T15:44:13.536Z,10.91
2022-10-03T15:49:30.464Z,10.84
2022-10-03T15:54:38.795Z,10.73
2022-10-03T15:59:45.446Z,10.67
2022-10-03T16:04:48.940Z,10.66
2022-10-03T16:10:06.937Z,10.61
2022-10-03T16:15:21.327Z,10.54
2022-10-03T16:20:29.813Z,10.50
2022-10-03T16:25:49.310Z,10.47
2022-10-03T16:31:00.049Z,10.46
2022-10-03T16:36:05.462Z,10.48
2022-10-03T16:41:10.428Z,10.46
2022-10-03T16:46:21.277Z,10.45
2022-10-03T16:51:46.917Z,10.44
2022-10-03T16:56:57.024Z,10.46
2022-10-03T17:02:06.601Z,10.52
2022-10-03T17:07:15.636Z,10.57
2022-10-03T17:12:39.043Z,10.60
2022-10-03T17:18:34.909Z,10.62
2022-10-03T17:23:49.384Z,10.66
2022-10-03T17:29:08.415Z,10.75
2022-10-03T17:34:23.973Z,10.73
2022-10-03T17:39:35.137Z,10.70
2022-10-03T17:45:09.407Z,10.69
2022-10-03T17:50:17.041Z,10.69
2022-10-03T17:55:27.405Z,10.69
2022-10-03T18:00:45.264Z,10.69
2022-10-03T18:05:52.677Z,10.66
2022-10-03T18:11:05.178Z,10.64
2022-10-03T18:16:39.127Z,10.60
2022-10-03T18:21:44.492Z,10.57
2022-10-03T18:26:54.560Z,10.58
2022-10-03T18:32:02.114Z,10.57
2022-10-03T18:37:25.703Z,10.55
2022-10-03T18:42:29.874Z,10.56
2022-10-03T18:47:44.080Z,10.56
2022-10-03T18:52:52.789Z,10.49
2022-10-03T18:58:09.778Z,10.45
2022-10-03T19:03:16.237Z,10.39
2022-10-03T19:08:30.126Z,10.30
2022-10-03T19:13:37.193Z,10.20
2022-10-03T19:19:01.009Z,10.16
2022-10-03T19:24:13.271Z,10.18
2022-10-03T19:29:23.201Z,10.20
2022-10-03T19:34:38.171Z,10.17
2022-10-03T19:39:41.130Z,10.08
2022-10-03T19:44:44.331Z,10.04
2022-10-03T19:50:04.281Z,10.07
2022-10-03T19:55:33.634Z,10.05
2022-10-03T20:01:00.372Z,10.07
2022-10-03T20:06:11.494Z,10.09
2022-10-03T20:11:39.899Z,10.11
2022-10-03T20:16:46.644Z,10.12
2022-10-03T20:21:57.115Z,10.14
2022-10-03T20:27:30.453Z,10.18
2022-10-03T20:32:42.194Z,10.22
2022-10-03T20:37:52.129Z,10.23
2022-10-03T20:43:09.673Z,10.24
2022-10-03T20:48:22.536Z,10.22
2022-10-03T20:53:27.502Z,10.17
2022-10-03T20:58:42.282Z,10.12
2022-10-03T21:04:20.035Z,10.07
2022-10-03T21:09:39.347Z,10.03
2022-10-03T21:14:43.666Z,10.03
2022-10-03T21:20:01.301Z,10.07
2022-10-03T21:25:08.554Z,10.09
2022-10-03T21:30:18.842Z,10.08
2022-10-03T21:35:29.200Z,10.08
2022-10-03T21:40:49.122Z,10.08
2022-10-03T21:46:15.528Z,10.08
2022-10-03T21:51:49.348Z,10.08
2022-10-03T21:57:12.875Z,10.08
2022-10-03T22:02:37.479Z,10.07
2022-10-03T22:07:41.985Z,10.09
2022-10-03T22:13:07.317Z,10.07
2022-10-03T22:18:15.468Z,10.07
2022-10-03T22:23:23.505Z,10.07
2022-10-03T22:28:46.746Z,10.07
2022-10-03T22:34:08.908Z,10.09
2022-10-03T22:39:15.528Z,10.12
2022-10-03T22:44:21.632Z,10.13
2022-10-03T22:49:35.824Z,10.17
2022-10-03T22:54:40.787Z,10.20
2022-10-03T22:59:48.534Z,10.23
2022-10-03T23:04:55.841Z,10.27
2022-10-03T23:10:12.948Z,10.30
2022-10-03T23:15:36.730Z,10.31
2022-10-03T23:20:59.733Z,10.34
2022-10-03T23:26:23.261Z,10.41
2022-10-03T23:32:03.720Z,10.44
2022-10-03T23:37:11.221Z,10.45
2022-10-03T23:42:33.233Z,10.47
2022-10-03T23:47:47.078Z,10.47
2022-10-03T23:52:58.086Z,10.50
2022-10-03T23:58:00.450Z,10.48
